sensor_id;sensor_type;location;lat;lon;timestamp;P1;durP1;ratioP1;P2;durP2;ratioP2
21615;SDS011;10970;48.714;9.584;2023-02-28T00:00:51;3.57;;;2.50;;
21615;SDS011;10970;48.714;9.584;2023-02-28T00:03:16;3.13;;;2.30;;
21615;SDS011;10970;48.714;9.584;2023-02-28T00:05:42;3.33;;;2.70;;
21615;SDS011;10970;48.714;9.584;2023-02-28T00:08:08;6.10;;;3.00;;
21615;SDS011;10970;48.714;9.584;2023-02-28T00:10:34;5.85;;;2.53;;
21615;SDS011;10970;48.714;9.584;2023-02-28T00:13:04;5.25;;;2.40;;
21615;SDS011;10970;48.714;9.584;2023-02-28T00:15:31;5.78;;;3.05;;
21615;SDS011;10970;48.714;9.584;2023-02-28T00:17:58;2.63;;;2.42;;
21615;SDS011;10970;48.714;9.584;2023-02-28T00:20:23;3.00;;;2.80;;
21615;SDS011;10970;48.714;9.584;2023-02-28T00:22:50;2.35;;;2.15;;
21615;SDS011;10970;48.714;9.584;2023-02-28T00:25:18;3.15;;;2.70;;
21615;SDS011;10970;48.714;9.584;2023-02-28T00:27:46;2.15;;;2.05;;
21615;SDS011;10970;48.714;9.584;2023-02-28T00:30:13;2.43;;;2.33;;
21615;SDS011;10970;48.714;9.584;2023-02-28T00:32:40;2.70;;;2.50;;
21615;SDS011;10970;48.714;9.584;2023-02-28T00:35:06;2.50;;;2.30;;
21615;SDS011;10970;48.714;9.584;2023-02-28T00:37:32;3.88;;;2.85;;
21615;SDS011;10970;48.714;9.584;2023-02-28T00:39:58;2.20;;;2.10;;
21615;SDS011;10970;48.714;9.584;2023-02-28T00:42:24;2.50;;;2.30;;
21615;SDS011;10970;48.714;9.584;2023-02-28T00:44:50;2.17;;;1.92;;
21615;SDS011;10970;48.714;9.584;2023-02-28T00:47:15;2.73;;;2.50;;
21615;SDS011;10970;48.714;9.584;2023-02-28T00:49:41;2.57;;;2.37;;
21615;SDS011;10970;48.714;9.584;2023-02-28T00:52:07;3.67;;;2.90;;
21615;SDS011;10970;48.714;9.584;2023-02-28T00:54:32;2.47;;;2.30;;
21615;SDS011;10970;48.714;9.584;2023-02-28T00:56:58;4.00;;;2.93;;
21615;SDS011;10970;48.714;9.584;2023-02-28T00:59:24;2.50;;;2.30;;
21615;SDS011;10970;48.714;9.584;2023-02-28T01:01:50;2.63;;;2.43;;
21615;SDS011;10970;48.714;9.584;2023-02-28T01:04:16;3.23;;;2.93;;
21615;SDS011;10970;48.714;9.584;2023-02-28T01:06:41;5.10;;;2.47;;
21615;SDS011;10970;48.714;9.584;2023-02-28T01:09:07;2.93;;;2.63;;
21615;SDS011;10970;48.714;9.584;2023-02-28T01:11:33;3.50;;;2.80;;
21615;SDS011;10970;48.714;9.584;2023-02-28T01:13:59;3.28;;;2.97;;
21615;SDS011;10970;48.714;9.584;2023-02-28T01:16:26;4.05;;;3.30;;
21615;SDS011;10970;48.714;9.584;2023-02-28T01:18:52;3.30;;;3.00;;
21615;SDS011;10970;48.714;9.584;2023-02-28T01:21:18;2.63;;;2.43;;
21615;SDS011;10970;48.714;9.584;2023-02-28T01:23:45;3.38;;;3.00;;
21615;SDS011;10970;48.714;9.584;2023-02-28T01:26:13;2.93;;;2.73;;
21615;SDS011;10970;48.714;9.584;2023-02-28T01:28:43;7.32;;;3.30;;
21615;SDS011;10970;48.714;9.584;2023-02-28T01:31:10;3.63;;;3.33;;
21615;SDS011;10970;48.714;9.584;2023-02-28T01:33:36;5.75;;;2.40;;
21615;SDS011;10970;48.714;9.584;2023-02-28T01:36:03;3.95;;;2.80;;
21615;SDS011;10970;48.714;9.584;2023-02-28T01:38:30;4.50;;;2.90;;
21615;SDS011;10970;48.714;9.584;2023-02-28T01:40:56;5.50;;;3.00;;
21615;SDS011;10970;48.714;9.584;2023-02-28T01:43:24;2.92;;;2.72;;
21615;SDS011;10970;48.714;9.584;2023-02-28T01:45:57;7.43;;;3.50;;
21615;SDS011;10970;48.714;9.584;2023-02-28T01:48:25;4.75;;;3.67;;
21615;SDS011;10970;48.714;9.584;2023-02-28T01:50:58;3.70;;;3.38;;
21615;SDS011;10970;48.714;9.584;2023-02-28T01:53:32;5.43;;;2.72;;
21615;SDS011;10970;48.714;9.584;2023-02-28T01:56:06;3.20;;;3.00;;
21615;SDS011;10970;48.714;9.584;2023-02-28T01:58:35;4.40;;;3.05;;
21615;SDS011;10970;48.714;9.584;2023-02-28T02:01:02;4.13;;;3.50;;
21615;SDS011;10970;48.714;9.584;2023-02-28T02:03:28;3.55;;;3.25;;
21615;SDS011;10970;48.714;9.584;2023-02-28T02:05:55;5.85;;;3.88;;
21615;SDS011;10970;48.714;9.584;2023-02-28T02:08:24;3.93;;;2.90;;
21615;SDS011;10970;48.714;9.584;2023-02-28T02:10:52;5.93;;;2.88;;
21615;SDS011;10970;48.714;9.584;2023-02-28T02:13:36;11.57;;;3.47;;
21615;SDS011;10970;48.714;9.584;2023-02-28T02:16:23;3.25;;;2.92;;
21615;SDS011;10970;48.714;9.584;2023-02-28T02:38:34;4.30;;;3.05;;
21615;SDS011;10970;48.714;9.584;2023-02-28T02:41:17;6.28;;;3.95;;
21615;SDS011;10970;48.714;9.584;2023-02-28T02:44:04;4.60;;;3.47;;
21615;SDS011;10970;48.714;9.584;2023-02-28T02:46:37;6.40;;;4.47;;
21615;SDS011;10970;48.714;9.584;2023-02-28T02:49:08;3.60;;;3.30;;
21615;SDS011;10970;48.714;9.584;2023-02-28T02:51:37;4.28;;;3.90;;
21615;SDS011;10970;48.714;9.584;2023-02-28T02:54:07;2.92;;;2.63;;
21615;SDS011;10970;48.714;9.584;2023-02-28T02:56:39;3.83;;;3.53;;
21615;SDS011;10970;48.714;9.584;2023-02-28T02:59:09;2.95;;;2.67;;
21615;SDS011;10970;48.714;9.584;2023-02-28T03:01:38;3.00;;;2.80;;
21615;SDS011;10970;48.714;9.584;2023-02-28T03:04:09;3.97;;;3.63;;
21615;SDS011;10970;48.714;9.584;2023-02-28T03:06:38;5.88;;;3.65;;
21615;SDS011;10970;48.714;9.584;2023-02-28T03:09:03;3.90;;;3.07;;
21615;SDS011;10970;48.714;9.584;2023-02-28T03:11:29;4.30;;;3.90;;
21615;SDS011;10970;48.714;9.584;2023-02-28T03:14:05;4.50;;;4.07;;
21615;SDS011;10970;48.714;9.584;2023-02-28T03:16:54;7.18;;;4.50;;
21615;SDS011;10970;48.714;9.584;2023-02-28T03:28:31;3.45;;;3.03;;
21615;SDS011;10970;48.714;9.584;2023-02-28T03:31:18;3.60;;;3.38;;
21615;SDS011;10970;48.714;9.584;2023-02-28T03:34:23;3.97;;;3.58;;
21615;SDS011;10970;48.714;9.584;2023-02-28T03:36:55;3.63;;;3.30;;
21615;SDS011;10970;48.714;9.584;2023-02-28T03:39:28;5.00;;;4.22;;
21615;SDS011;10970;48.714;9.584;2023-02-28T03:42:00;5.13;;;4.63;;
21615;SDS011;10970;48.714;9.584;2023-02-28T03:44:32;4.75;;;4.35;;
21615;SDS011;10970;48.714;9.584;2023-02-28T03:47:03;4.50;;;4.10;;
21615;SDS011;10970;48.714;9.584;2023-02-28T03:50:01;5.68;;;4.32;;
21615;SDS011;10970;48.714;9.584;2023-02-28T03:52:33;7.32;;;4.00;;
21615;SDS011;10970;48.714;9.584;2023-02-28T03:55:03;5.38;;;4.10;;
21615;SDS011;10970;48.714;9.584;2023-02-28T03:57:38;4.43;;;4.03;;
21615;SDS011;10970;48.714;9.584;2023-02-28T04:00:16;8.63;;;4.60;;
21615;SDS011;10970;48.714;9.584;2023-02-28T04:02:44;6.32;;;5.00;;
21615;SDS011;10970;48.714;9.584;2023-02-28T04:05:10;4.63;;;3.90;;
21615;SDS011;10970;48.714;9.584;2023-02-28T04:07:36;4.30;;;3.90;;
21615;SDS011;10970;48.714;9.584;2023-02-28T04:10:03;4.97;;;4.33;;
21615;SDS011;10970;48.714;9.584;2023-02-28T04:12:29;4.40;;;4.00;;
21615;SDS011;10970;48.714;9.584;2023-02-28T04:14:54;4.73;;;4.10;;
21615;SDS011;10970;48.714;9.584;2023-02-28T04:17:20;9.37;;;4.60;;
21615;SDS011;10970;48.714;9.584;2023-02-28T04:19:46;6.30;;;5.23;;
21615;SDS011;10970;48.714;9.584;2023-02-28T04:22:11;5.30;;;4.80;;
21615;SDS011;10970;48.714;9.584;2023-02-28T04:24:37;6.13;;;4.87;;
21615;SDS011;10970;48.714;9.584;2023-02-28T04:27:06;5.80;;;3.78;;
21615;SDS011;10970;48.714;9.584;2023-02-28T04:29:33;6.15;;;5.00;;
21615;SDS011;10970;48.714;9.584;2023-02-28T04:31:59;8.53;;;4.67;;
21615;SDS011;10970;48.714;9.584;2023-02-28T04:34:26;5.25;;;4.72;;
21615;SDS011;10970;48.714;9.584;2023-02-28T04:36:53;5.80;;;4.70;;
21615;SDS011;10970;48.714;9.584;2023-02-28T04:39:20;6.45;;;4.70;;
21615;SDS011;10970;48.714;9.584;2023-02-28T04:41:46;4.80;;;3.85;;
21615;SDS011;10970;48.714;9.584;2023-02-28T04:44:12;9.33;;;4.03;;
21615;SDS011;10970;48.714;9.584;2023-02-28T04:46:38;6.40;;;4.95;;
21615;SDS011;10970;48.714;9.584;2023-02-28T04:49:04;6.87;;;4.33;;
21615;SDS011;10970;48.714;9.584;2023-02-28T04:51:29;7.33;;;4.93;;
21615;SDS011;10970;48.714;9.584;2023-02-28T04:53:55;6.93;;;5.40;;
21615;SDS011;10970;48.714;9.584;2023-02-28T04:56:21;5.70;;;4.73;;
21615;SDS011;10970;48.714;9.584;2023-02-28T04:58:47;5.70;;;3.67;;
21615;SDS011;10970;48.714;9.584;2023-02-28T05:01:18;6.25;;;4.40;;
21615;SDS011;10970;48.714;9.584;2023-02-28T05:03:45;6.78;;;4.50;;
21615;SDS011;10970;48.714;9.584;2023-02-28T05:06:12;6.30;;;5.37;;
21615;SDS011;10970;48.714;9.584;2023-02-28T05:08:38;7.53;;;4.47;;
21615;SDS011;10970;48.714;9.584;2023-02-28T05:11:05;11.40;;;5.68;;
21615;SDS011;10970;48.714;9.584;2023-02-28T05:13:33;6.60;;;5.07;;
21615;SDS011;10970;48.714;9.584;2023-02-28T05:16:00;5.05;;;4.63;;
21615;SDS011;10970;48.714;9.584;2023-02-28T05:18:26;10.80;;;6.17;;
21615;SDS011;10970;48.714;9.584;2023-02-28T05:20:51;4.67;;;4.20;;
21615;SDS011;10970;48.714;9.584;2023-02-28T05:23:17;5.60;;;5.10;;
21615;SDS011;10970;48.714;9.584;2023-02-28T05:25:46;5.47;;;4.97;;
21615;SDS011;10970;48.714;9.584;2023-02-28T05:28:11;6.40;;;4.60;;
21615;SDS011;10970;48.714;9.584;2023-02-28T05:30:37;5.17;;;4.67;;
21615;SDS011;10970;48.714;9.584;2023-02-28T05:33:03;4.40;;;3.93;;
21615;SDS011;10970;48.714;9.584;2023-02-28T05:35:28;6.90;;;5.50;;
21615;SDS011;10970;48.714;9.584;2023-02-28T05:37:54;7.50;;;5.80;;
21615;SDS011;10970;48.714;9.584;2023-02-28T05:40:19;8.63;;;6.30;;
21615;SDS011;10970;48.714;9.584;2023-02-28T05:42:46;5.40;;;4.80;;
21615;SDS011;10970;48.714;9.584;2023-02-28T05:45:12;7.45;;;5.50;;
21615;SDS011;10970;48.714;9.584;2023-02-28T05:47:37;11.23;;;5.50;;
21615;SDS011;10970;48.714;9.584;2023-02-28T05:50:03;9.37;;;5.77;;
21615;SDS011;10970;48.714;9.584;2023-02-28T05:52:30;5.65;;;5.05;;
21615;SDS011;10970;48.714;9.584;2023-02-28T05:54:57;8.48;;;5.60;;
21615;SDS011;10970;48.714;9.584;2023-02-28T05:57:23;7.53;;;6.03;;
21615;SDS011;10970;48.714;9.584;2023-02-28T05:59:49;8.02;;;6.47;;
21615;SDS011;10970;48.714;9.584;2023-02-28T06:02:16;10.80;;;5.65;;
21615;SDS011;10970;48.714;9.584;2023-02-28T06:04:42;7.93;;;5.88;;
21615;SDS011;10970;48.714;9.584;2023-02-28T06:07:08;10.57;;;5.35;;
21615;SDS011;10970;48.714;9.584;2023-02-28T06:09:35;5.35;;;4.85;;
21615;SDS011;10970;48.714;9.584;2023-02-28T06:12:01;7.15;;;5.72;;
21615;SDS011;10970;48.714;9.584;2023-02-28T06:14:34;7.07;;;5.32;;
21615;SDS011;10970;48.714;9.584;2023-02-28T06:17:01;9.68;;;6.28;;
21615;SDS011;10970;48.714;9.584;2023-02-28T06:19:28;10.50;;;7.25;;
21615;SDS011;10970;48.714;9.584;2023-02-28T06:21:55;6.68;;;5.68;;
21615;SDS011;10970;48.714;9.584;2023-02-28T06:24:23;6.05;;;5.47;;
21615;SDS011;10970;48.714;9.584;2023-02-28T06:26:50;11.10;;;5.93;;
21615;SDS011;10970;48.714;9.584;2023-02-28T06:29:16;7.53;;;5.45;;
21615;SDS011;10970;48.714;9.584;2023-02-28T06:31:43;6.35;;;5.75;;
21615;SDS011;10970;48.714;9.584;2023-02-28T06:34:09;11.90;;;5.85;;
21615;SDS011;10970;48.714;9.584;2023-02-28T06:36:38;6.18;;;5.30;;
21615;SDS011;10970;48.714;9.584;2023-02-28T06:39:05;9.50;;;6.72;;
21615;SDS011;10970;48.714;9.584;2023-02-28T06:41:31;6.35;;;5.75;;
21615;SDS011;10970;48.714;9.584;2023-02-28T06:44:10;10.60;;;7.22;;
21615;SDS011;10970;48.714;9.584;2023-02-28T06:46:38;5.88;;;5.18;;
21615;SDS011;10970;48.714;9.584;2023-02-28T06:49:07;7.20;;;6.28;;
21615;SDS011;10970;48.714;9.584;2023-02-28T06:51:34;8.52;;;6.57;;
21615;SDS011;10970;48.714;9.584;2023-02-28T06:54:01;8.95;;;6.38;;
21615;SDS011;10970;48.714;9.584;2023-02-28T06:56:27;8.35;;;6.25;;
21615;SDS011;10970;48.714;9.584;2023-02-28T06:58:53;11.60;;;7.17;;
21615;SDS011;10970;48.714;9.584;2023-02-28T07:01:19;8.40;;;6.93;;
21615;SDS011;10970;48.714;9.584;2023-02-28T07:03:46;11.00;;;7.72;;
21615;SDS011;10970;48.714;9.584;2023-02-28T07:06:12;8.68;;;6.78;;
21615;SDS011;10970;48.714;9.584;2023-02-28T07:08:37;13.10;;;7.60;;
21615;SDS011;10970;48.714;9.584;2023-02-28T07:11:05;7.93;;;6.00;;
21615;SDS011;10970;48.714;9.584;2023-02-28T07:13:31;8.83;;;7.20;;
21615;SDS011;10970;48.714;9.584;2023-02-28T07:15:57;9.70;;;6.97;;
21615;SDS011;10970;48.714;9.584;2023-02-28T07:18:25;8.00;;;6.18;;
21615;SDS011;10970;48.714;9.584;2023-02-28T07:20:51;6.90;;;5.40;;
21615;SDS011;10970;48.714;9.584;2023-02-28T07:23:17;8.43;;;6.50;;
21615;SDS011;10970;48.714;9.584;2023-02-28T07:25:43;10.73;;;6.68;;
21615;SDS011;10970;48.714;9.584;2023-02-28T07:28:08;10.40;;;6.40;;
21615;SDS011;10970;48.714;9.584;2023-02-28T07:30:34;9.53;;;6.90;;
21615;SDS011;10970;48.714;9.584;2023-02-28T07:33:00;7.13;;;6.23;;
21615;SDS011;10970;48.714;9.584;2023-02-28T07:35:25;8.27;;;5.90;;
21615;SDS011;10970;48.714;9.584;2023-02-28T07:37:51;7.20;;;5.60;;
21615;SDS011;10970;48.714;9.584;2023-02-28T07:40:17;7.33;;;5.97;;
21615;SDS011;10970;48.714;9.584;2023-02-28T07:42:43;10.57;;;7.20;;
21615;SDS011;10970;48.714;9.584;2023-02-28T07:45:09;7.60;;;6.60;;
21615;SDS011;10970;48.714;9.584;2023-02-28T07:47:39;8.48;;;7.28;;
21615;SDS011;10970;48.714;9.584;2023-02-28T07:50:06;8.02;;;6.72;;
21615;SDS011;10970;48.714;9.584;2023-02-28T07:52:34;6.22;;;5.60;;
21615;SDS011;10970;48.714;9.584;2023-02-28T07:55:01;10.27;;;7.28;;
21615;SDS011;10970;48.714;9.584;2023-02-28T07:57:27;8.00;;;7.20;;
21615;SDS011;10970;48.714;9.584;2023-02-28T07:59:52;10.43;;;6.53;;
21615;SDS011;10970;48.714;9.584;2023-02-28T08:02:18;9.47;;;7.20;;
21615;SDS011;10970;48.714;9.584;2023-02-28T08:04:44;7.50;;;6.17;;
21615;SDS011;10970;48.714;9.584;2023-02-28T08:07:12;9.77;;;7.10;;
21615;SDS011;10970;48.714;9.584;2023-02-28T08:09:38;9.60;;;7.43;;
21615;SDS011;10970;48.714;9.584;2023-02-28T08:12:04;8.48;;;7.07;;
21615;SDS011;10970;48.714;9.584;2023-02-28T08:14:31;8.27;;;7.13;;
21615;SDS011;10970;48.714;9.584;2023-02-28T08:16:56;7.97;;;6.70;;
21615;SDS011;10970;48.714;9.584;2023-02-28T08:19:22;8.93;;;7.37;;
21615;SDS011;10970;48.714;9.584;2023-02-28T08:21:48;6.87;;;5.60;;
21615;SDS011;10970;48.714;9.584;2023-02-28T08:24:14;8.50;;;6.23;;
21615;SDS011;10970;48.714;9.584;2023-02-28T08:26:39;6.93;;;6.13;;
21615;SDS011;10970;48.714;9.584;2023-02-28T08:29:05;13.47;;;6.93;;
21615;SDS011;10970;48.714;9.584;2023-02-28T08:31:30;10.60;;;6.57;;
21615;SDS011;10970;48.714;9.584;2023-02-28T08:33:56;8.90;;;6.60;;
21615;SDS011;10970;48.714;9.584;2023-02-28T08:36:23;6.60;;;5.68;;
21615;SDS011;10970;48.714;9.584;2023-02-28T08:38:50;13.02;;;8.32;;
21615;SDS011;10970;48.714;9.584;2023-02-28T08:41:16;14.90;;;7.43;;
21615;SDS011;10970;48.714;9.584;2023-02-28T08:43:42;6.77;;;6.07;;
21615;SDS011;10970;48.714;9.584;2023-02-28T08:46:08;11.77;;;7.28;;
21615;SDS011;10970;48.714;9.584;2023-02-28T08:48:37;8.93;;;6.72;;
21615;SDS011;10970;48.714;9.584;2023-02-28T08:51:10;9.60;;;6.87;;
21615;SDS011;10970;48.714;9.584;2023-02-28T08:53:38;8.45;;;7.38;;
21615;SDS011;10970;48.714;9.584;2023-02-28T08:56:06;11.00;;;6.40;;
21615;SDS011;10970;48.714;9.584;2023-02-28T08:58:33;8.07;;;5.80;;
21615;SDS011;10970;48.714;9.584;2023-02-28T09:00:59;8.13;;;7.32;;
21615;SDS011;10970;48.714;9.584;2023-02-28T09:03:25;8.70;;;7.20;;
21615;SDS011;10970;48.714;9.584;2023-02-28T09:08:21;8.27;;;5.50;;
21615;SDS011;10970;48.714;9.584;2023-02-28T09:10:48;8.60;;;7.13;;
21615;SDS011;10970;48.714;9.584;2023-02-28T09:13:13;9.50;;;7.83;;
21615;SDS011;10970;48.714;9.584;2023-02-28T09:15:39;7.10;;;5.90;;
21615;SDS011;10970;48.714;9.584;2023-02-28T09:18:05;9.50;;;7.40;;
21615;SDS011;10970;48.714;9.584;2023-02-28T09:20:30;8.53;;;7.50;;
21615;SDS011;10970;48.714;9.584;2023-02-28T09:22:56;12.17;;;8.50;;
21615;SDS011;10970;48.714;9.584;2023-02-28T09:25:21;11.03;;;7.20;;
21615;SDS011;10970;48.714;9.584;2023-02-28T09:27:47;10.53;;;6.70;;
21615;SDS011;10970;48.714;9.584;2023-02-28T09:30:13;8.70;;;6.83;;
21615;SDS011;10970;48.714;9.584;2023-02-28T09:32:39;7.18;;;5.57;;
21615;SDS011;10970;48.714;9.584;2023-02-28T09:35:05;6.87;;;5.83;;
21615;SDS011;10970;48.714;9.584;2023-02-28T09:37:31;6.28;;;5.63;;
21615;SDS011;10970;48.714;9.584;2023-02-28T09:39:57;8.13;;;6.67;;
21615;SDS011;10970;48.714;9.584;2023-02-28T09:42:32;8.10;;;7.03;;
21615;SDS011;10970;48.714;9.584;2023-02-28T09:45:00;8.38;;;6.55;;
21615;SDS011;10970;48.714;9.584;2023-02-28T09:47:34;13.38;;;8.88;;
21615;SDS011;10970;48.714;9.584;2023-02-28T09:50:12;8.43;;;7.50;;
21615;SDS011;10970;48.714;9.584;2023-02-28T09:52:52;7.80;;;6.97;;
21615;SDS011;10970;48.714;9.584;2023-02-28T09:55:38;8.13;;;6.53;;
21615;SDS011;10970;48.714;9.584;2023-02-28T09:58:14;20.98;;;8.27;;
21615;SDS011;10970;48.714;9.584;2023-02-28T10:00:49;9.45;;;7.60;;
21615;SDS011;10970;48.714;9.584;2023-02-28T10:03:46;8.23;;;6.50;;
21615;SDS011;10970;48.714;9.584;2023-02-28T10:06:22;15.77;;;7.18;;
21615;SDS011;10970;48.714;9.584;2023-02-28T10:11:59;8.18;;;7.28;;
21615;SDS011;10970;48.714;9.584;2023-02-28T10:14:28;10.45;;;8.02;;
21615;SDS011;10970;48.714;9.584;2023-02-28T10:19:37;7.90;;;7.10;;
21615;SDS011;10970;48.714;9.584;2023-02-28T10:22:16;8.52;;;7.07;;
21615;SDS011;10970;48.714;9.584;2023-02-28T10:24:48;9.23;;;7.75;;
21615;SDS011;10970;48.714;9.584;2023-02-28T10:27:20;9.65;;;7.07;;
21615;SDS011;10970;48.714;9.584;2023-02-28T10:29:48;9.77;;;6.85;;
21615;SDS011;10970;48.714;9.584;2023-02-28T10:32:18;10.23;;;7.30;;
21615;SDS011;10970;48.714;9.584;2023-02-28T10:37:42;9.77;;;7.30;;
21615;SDS011;10970;48.714;9.584;2023-02-28T10:45:25;8.98;;;7.20;;
21615;SDS011;10970;48.714;9.584;2023-02-28T10:50:27;9.05;;;6.60;;
21615;SDS011;10970;48.714;9.584;2023-02-28T10:52:53;13.82;;;8.02;;
21615;SDS011;10970;48.714;9.584;2023-02-28T10:57:47;9.48;;;7.00;;
21615;SDS011;10970;48.714;9.584;2023-02-28T11:00:15;10.35;;;8.27;;
21615;SDS011;10970;48.714;9.584;2023-02-28T11:02:44;8.45;;;7.30;;
21615;SDS011;10970;48.714;9.584;2023-02-28T11:07:59;8.20;;;7.18;;
21615;SDS011;10970;48.714;9.584;2023-02-28T11:10:28;8.65;;;7.15;;
21615;SDS011;10970;48.714;9.584;2023-02-28T11:12:59;7.07;;;6.38;;
21615;SDS011;10970;48.714;9.584;2023-02-28T11:20:52;11.13;;;6.80;;
21615;SDS011;10970;48.714;9.584;2023-02-28T11:23:20;9.50;;;8.50;;
21615;SDS011;10970;48.714;9.584;2023-02-28T11:25:51;13.70;;;8.77;;
21615;SDS011;10970;48.714;9.584;2023-02-28T11:28:32;7.38;;;6.65;;
21615;SDS011;10970;48.714;9.584;2023-02-28T11:31:01;8.77;;;6.15;;
21615;SDS011;10970;48.714;9.584;2023-02-28T11:33:28;9.57;;;7.55;;
21615;SDS011;10970;48.714;9.584;2023-02-28T11:35:59;9.07;;;8.20;;
21615;SDS011;10970;48.714;9.584;2023-02-28T11:38:28;9.60;;;6.65;;
21615;SDS011;10970;48.714;9.584;2023-02-28T11:51:35;9.68;;;8.27;;
21615;SDS011;10970;48.714;9.584;2023-02-28T12:10:19;8.40;;;7.38;;
21615;SDS011;10970;48.714;9.584;2023-02-28T12:12:57;10.40;;;7.95;;
21615;SDS011;10970;48.714;9.584;2023-02-28T12:26:38;9.15;;;7.65;;
21615;SDS011;10970;48.714;9.584;2023-02-28T12:29:12;9.93;;;7.38;;
21615;SDS011;10970;48.714;9.584;2023-02-28T12:31:47;7.85;;;7.15;;
21615;SDS011;10970;48.714;9.584;2023-02-28T12:34:19;9.68;;;7.38;;
21615;SDS011;10970;48.714;9.584;2023-02-28T12:36:52;9.15;;;7.57;;
21615;SDS011;10970;48.714;9.584;2023-02-28T12:39:26;10.07;;;7.35;;
21615;SDS011;10970;48.714;9.584;2023-02-28T12:42:01;11.25;;;8.50;;
21615;SDS011;10970;48.714;9.584;2023-02-28T12:44:52;7.95;;;7.15;;
21615;SDS011;10970;48.714;9.584;2023-02-28T12:47:23;10.73;;;6.90;;
21615;SDS011;10970;48.714;9.584;2023-02-28T12:49:50;9.60;;;8.00;;
21615;SDS011;10970;48.714;9.584;2023-02-28T12:52:32;7.50;;;6.72;;
21615;SDS011;10970;48.714;9.584;2023-02-28T12:55:04;8.35;;;7.40;;
21615;SDS011;10970;48.714;9.584;2023-02-28T13:00:21;9.45;;;7.35;;
21615;SDS011;10970;48.714;9.584;2023-02-28T13:05:32;7.38;;;6.35;;
21615;SDS011;10970;48.714;9.584;2023-02-28T13:10:52;8.80;;;7.40;;
21615;SDS011;10970;48.714;9.584;2023-02-28T13:13:25;10.23;;;7.45;;
21615;SDS011;10970;48.714;9.584;2023-02-28T13:16:04;11.95;;;6.93;;
21615;SDS011;10970;48.714;9.584;2023-02-28T13:18:45;7.72;;;6.55;;
21615;SDS011;10970;48.714;9.584;2023-02-28T13:21:22;7.43;;;6.68;;
21615;SDS011;10970;48.714;9.584;2023-02-28T13:26:21;8.32;;;7.28;;
21615;SDS011;10970;48.714;9.584;2023-02-28T13:28:57;7.97;;;6.47;;
21615;SDS011;10970;48.714;9.584;2023-02-28T13:31:23;9.50;;;6.85;;
21615;SDS011;10970;48.714;9.584;2023-02-28T13:36:30;9.30;;;6.35;;
21615;SDS011;10970;48.714;9.584;2023-02-28T13:44:01;8.37;;;6.93;;
21615;SDS011;10970;48.714;9.584;2023-02-28T14:00:21;10.38;;;7.50;;
21615;SDS011;10970;48.714;9.584;2023-02-28T14:06:08;7.57;;;6.65;;
21615;SDS011;10970;48.714;9.584;2023-02-28T14:09:14;8.80;;;6.72;;
21615;SDS011;10970;48.714;9.584;2023-02-28T14:11:53;9.32;;;6.68;;
21615;SDS011;10970;48.714;9.584;2023-02-28T14:17:04;7.15;;;6.45;;
21615;SDS011;10970;48.714;9.584;2023-02-28T14:19:38;9.07;;;7.65;;
21615;SDS011;10970;48.714;9.584;2023-02-28T14:36:00;10.75;;;7.35;;
21615;SDS011;10970;48.714;9.584;2023-02-28T14:38:31;8.90;;;7.25;;
21615;SDS011;10970;48.714;9.584;2023-02-28T14:41:11;9.57;;;7.47;;
21615;SDS011;10970;48.714;9.584;2023-02-28T14:43:50;8.70;;;7.43;;
21615;SDS011;10970;48.714;9.584;2023-02-28T14:46:21;8.18;;;7.35;;
21615;SDS011;10970;48.714;9.584;2023-02-28T14:48:49;8.25;;;7.22;;
21615;SDS011;10970;48.714;9.584;2023-02-28T14:51:19;8.00;;;7.18;;
21615;SDS011;10970;48.714;9.584;2023-02-28T14:53:51;8.13;;;6.68;;
21615;SDS011;10970;48.714;9.584;2023-02-28T14:56:27;8.90;;;7.97;;
21615;SDS011;10970;48.714;9.584;2023-02-28T14:59:02;8.10;;;7.20;;
21615;SDS011;10970;48.714;9.584;2023-02-28T15:01:28;8.45;;;7.63;;
21615;SDS011;10970;48.714;9.584;2023-02-28T15:03:57;6.70;;;5.68;;
21615;SDS011;10970;48.714;9.584;2023-02-28T15:06:26;8.35;;;7.40;;
21615;SDS011;10970;48.714;9.584;2023-02-28T15:11:40;11.18;;;7.78;;
21615;SDS011;10970;48.714;9.584;2023-02-28T15:14:07;8.90;;;7.07;;
21615;SDS011;10970;48.714;9.584;2023-02-28T15:16:39;8.23;;;7.45;;
21615;SDS011;10970;48.714;9.584;2023-02-28T15:19:13;9.45;;;7.15;;
21615;SDS011;10970;48.714;9.584;2023-02-28T15:22:04;10.60;;;7.05;;
21615;SDS011;10970;48.714;9.584;2023-02-28T15:27:07;8.75;;;7.85;;
21615;SDS011;10970;48.714;9.584;2023-02-28T15:29:48;7.28;;;6.63;;
21615;SDS011;10970;48.714;9.584;2023-02-28T15:32:38;8.60;;;7.38;;
21615;SDS011;10970;48.714;9.584;2023-02-28T15:37:54;10.27;;;7.53;;
21615;SDS011;10970;48.714;9.584;2023-02-28T15:50:47;9.75;;;6.57;;
21615;SDS011;10970;48.714;9.584;2023-02-28T15:53:28;10.00;;;7.80;;
21615;SDS011;10970;48.714;9.584;2023-02-28T15:55:59;10.15;;;7.63;;
21615;SDS011;10970;48.714;9.584;2023-02-28T15:58:27;11.85;;;6.38;;
21615;SDS011;10970;48.714;9.584;2023-02-28T16:03:40;8.50;;;7.63;;
21615;SDS011;10970;48.714;9.584;2023-02-28T16:08:47;13.15;;;7.72;;
21615;SDS011;10970;48.714;9.584;2023-02-28T16:11:13;11.07;;;7.68;;
21615;SDS011;10970;48.714;9.584;2023-02-28T16:13:40;10.57;;;9.48;;
21615;SDS011;10970;48.714;9.584;2023-02-28T16:16:05;8.20;;;7.30;;
21615;SDS011;10970;48.714;9.584;2023-02-28T16:18:31;10.97;;;8.53;;
21615;SDS011;10970;48.714;9.584;2023-02-28T16:20:57;9.50;;;8.07;;
21615;SDS011;10970;48.714;9.584;2023-02-28T16:23:23;8.70;;;7.70;;
21615;SDS011;10970;48.714;9.584;2023-02-28T16:25:48;9.07;;;7.67;;
21615;SDS011;10970;48.714;9.584;2023-02-28T16:28:21;13.00;;;8.63;;
21615;SDS011;10970;48.714;9.584;2023-02-28T16:30:54;9.63;;;8.10;;
21615;SDS011;10970;48.714;9.584;2023-02-28T16:33:20;11.90;;;8.93;;
21615;SDS011;10970;48.714;9.584;2023-02-28T16:35:46;10.10;;;9.03;;
21615;SDS011;10970;48.714;9.584;2023-02-28T16:38:12;10.10;;;7.77;;
21615;SDS011;10970;48.714;9.584;2023-02-28T16:40:38;14.00;;;9.40;;
21615;SDS011;10970;48.714;9.584;2023-02-28T16:43:04;11.63;;;8.23;;
21615;SDS011;10970;48.714;9.584;2023-02-28T16:45:38;14.32;;;8.00;;
21615;SDS011;10970;48.714;9.584;2023-02-28T16:48:03;10.10;;;7.27;;
21615;SDS011;10970;48.714;9.584;2023-02-28T16:50:30;12.17;;;8.47;;
21615;SDS011;10970;48.714;9.584;2023-02-28T16:52:57;11.07;;;8.45;;
21615;SDS011;10970;48.714;9.584;2023-02-28T16:55:23;9.90;;;8.10;;
21615;SDS011;10970;48.714;9.584;2023-02-28T16:57:51;11.68;;;8.05;;
21615;SDS011;10970;48.714;9.584;2023-02-28T17:00:20;13.18;;;9.80;;
21615;SDS011;10970;48.714;9.584;2023-02-28T17:02:45;12.07;;;8.50;;
21615;SDS011;10970;48.714;9.584;2023-02-28T17:05:11;10.73;;;8.63;;
21615;SDS011;10970;48.714;9.584;2023-02-28T17:07:38;13.68;;;9.13;;
21615;SDS011;10970;48.714;9.584;2023-02-28T17:10:10;9.63;;;8.63;;
21615;SDS011;10970;48.714;9.584;2023-02-28T17:12:42;8.52;;;7.63;;
21615;SDS011;10970;48.714;9.584;2023-02-28T17:15:09;10.20;;;8.48;;
21615;SDS011;10970;48.714;9.584;2023-02-28T17:17:39;11.32;;;8.68;;
21615;SDS011;10970;48.714;9.584;2023-02-28T17:20:05;13.93;;;9.80;;
21615;SDS011;10970;48.714;9.584;2023-02-28T17:22:31;9.95;;;8.80;;
21615;SDS011;10970;48.714;9.584;2023-02-28T17:24:57;12.40;;;8.18;;
21615;SDS011;10970;48.714;9.584;2023-02-28T17:27:23;13.10;;;9.37;;
21615;SDS011;10970;48.714;9.584;2023-02-28T17:29:50;14.93;;;10.02;;
21615;SDS011;10970;48.714;9.584;2023-02-28T17:32:16;10.48;;;7.40;;
21615;SDS011;10970;48.714;9.584;2023-02-28T17:34:42;13.23;;;9.90;;
21615;SDS011;10970;48.714;9.584;2023-02-28T17:37:09;9.65;;;8.60;;
21615;SDS011;10970;48.714;9.584;2023-02-28T17:39:35;17.27;;;10.25;;
21615;SDS011;10970;48.714;9.584;2023-02-28T17:42:01;11.70;;;9.27;;
21615;SDS011;10970;48.714;9.584;2023-02-28T17:44:27;12.83;;;9.97;;
21615;SDS011;10970;48.714;9.584;2023-02-28T17:46:53;10.00;;;9.00;;
21615;SDS011;10970;48.714;9.584;2023-02-28T17:49:19;13.38;;;10.25;;